createdAt,value
2022-07-25T00:01:23.031Z,3.17
2022-07-25T00:03:51.993Z,3.40
2022-07-25T00:06:20.353Z,3.10
2022-07-25T00:08:49.981Z,3.50
2022-07-25T00:11:18.250Z,2.03
2022-07-25T00:13:46.549Z,3.50
2022-07-25T00:16:14.862Z,2.70
2022-07-25T00:18:43.194Z,2.47
2022-07-25T00:21:11.512Z,4.20
2022-07-25T00:23:39.797Z,2.03
2022-07-25T00:26:09.414Z,2.60
2022-07-25T00:28:37.747Z,3.50
2022-07-25T00:31:06.121Z,2.07
2022-07-25T00:33:34.427Z,2.10
2022-07-25T00:36:02.668Z,2.77
2022-07-25T00:38:30.906Z,1.70
2022-07-25T00:40:59.187Z,2.10
2022-07-25T00:43:28.845Z,2.30
2022-07-25T00:45:58.796Z,3.40
2022-07-25T00:48:27.936Z,1.47
2022-07-25T00:50:56.323Z,2.97
2022-07-25T00:53:24.610Z,2.00
2022-07-25T00:55:53.004Z,1.77
2022-07-25T00:58:21.317Z,1.83
2022-07-25T01:00:50.955Z,2.10
2022-07-25T01:03:19.286Z,1.87
2022-07-25T01:05:53.073Z,2.40
2022-07-25T01:08:22.052Z,2.67
2022-07-25T01:10:50.405Z,1.50
2022-07-25T01:13:18.704Z,2.33
2022-07-25T01:15:50.763Z,2.00
2022-07-25T01:18:19.095Z,1.33
2022-07-25T01:20:48.840Z,1.57
2022-07-25T01:23:17.125Z,2.27
2022-07-25T01:25:45.805Z,3.67
2022-07-25T01:28:14.128Z,1.30
2022-07-25T01:30:42.541Z,2.03
2022-07-25T01:33:10.851Z,1.77
2022-07-25T01:35:43.386Z,2.37
2022-07-25T01:38:13.294Z,1.57
2022-07-25T01:40:41.604Z,1.40
2022-07-25T01:43:09.921Z,1.80
2022-07-25T01:45:38.350Z,2.50
2022-07-25T01:48:06.717Z,1.90
2022-07-25T01:50:34.967Z,2.23
2022-07-25T01:53:03.231Z,1.73
2022-07-25T01:55:32.888Z,2.00
2022-07-25T01:58:01.427Z,1.40
2022-07-25T02:00:29.780Z,1.83
2022-07-25T02:03:11.969Z,2.20
2022-07-25T02:05:40.251Z,1.90
2022-07-25T02:08:08.563Z,1.73
2022-07-25T02:10:41.056Z,1.73
2022-07-25T02:13:09.533Z,1.83
2022-07-25T02:15:37.761Z,2.40
2022-07-25T02:18:06.055Z,2.60
2022-07-25T02:20:34.357Z,1.53
2022-07-25T02:23:03.228Z,4.10
2022-07-25T02:25:31.499Z,2.77
2022-07-25T02:28:01.188Z,2.30
2022-07-25T02:30:29.722Z,2.47
2022-07-25T02:32:58.016Z,1.67
2022-07-25T02:35:26.292Z,3.10
2022-07-25T02:37:54.720Z,3.70
2022-07-25T02:40:23.018Z,3.13
2022-07-25T02:42:51.298Z,2.70
2022-07-25T02:45:21.026Z,2.70
2022-07-25T02:47:49.302Z,2.57
2022-07-25T02:50:17.554Z,1.83
2022-07-25T02:52:45.818Z,3.13
2022-07-25T02:55:14.310Z,2.40
2022-07-25T02:57:42.580Z,2.40
2022-07-25T03:00:11.313Z,4.87
2022-07-25T03:02:40.938Z,3.87
2022-07-25T03:05:09.668Z,4.90
2022-07-25T03:07:37.985Z,4.23
2022-07-25T03:10:11.046Z,4.27
2022-07-25T03:12:39.795Z,4.73
2022-07-25T03:15:08.424Z,4.70
2022-07-25T03:17:36.694Z,8.77
2022-07-25T03:20:06.717Z,4.90
2022-07-25T03:22:35.147Z,9.47
2022-07-25T03:25:03.410Z,5.93
2022-07-25T03:27:31.685Z,7.30
2022-07-25T03:29:59.951Z,6.30
2022-07-25T03:32:28.272Z,5.77
2022-07-25T03:34:56.548Z,7.63
2022-07-25T03:37:26.183Z,8.43
2022-07-25T03:39:54.454Z,6.13
2022-07-25T03:42:26.767Z,7.07
2022-07-25T03:44:55.241Z,6.73
2022-07-25T03:47:23.529Z,5.53
2022-07-25T03:49:51.824Z,6.70
2022-07-25T03:52:20.105Z,5.90
2022-07-25T03:54:49.733Z,5.00
2022-07-25T03:57:18.018Z,5.40
2022-07-25T03:59:46.289Z,6.77
2022-07-25T04:02:14.631Z,6.77
2022-07-25T04:04:42.937Z,5.83
2022-07-25T04:07:11.192Z,4.80
2022-07-25T04:09:39.465Z,5.10
2022-07-25T04:12:09.249Z,6.43
2022-07-25T04:14:37.531Z,8.00
2022-07-25T04:17:06.327Z,5.40
2022-07-25T04:19:34.639Z,4.97
2022-07-25T04:22:02.901Z,5.33
2022-07-25T04:24:31.168Z,5.63
2022-07-25T04:26:59.413Z,4.17
2022-07-25T04:29:29.157Z,5.53
2022-07-25T04:31:58.061Z,5.47
2022-07-25T04:34:26.467Z,6.70
2022-07-25T04:36:54.742Z,6.80
2022-07-25T04:39:23.001Z,5.73
2022-07-25T04:41:51.448Z,5.43
2022-07-25T04:44:19.740Z,5.57
2022-07-25T04:46:49.351Z,4.50
2022-07-25T04:49:17.625Z,4.13
2022-07-25T04:51:45.933Z,4.97
2022-07-25T04:54:14.201Z,2.67
2022-07-25T04:56:42.476Z,3.60
2022-07-25T04:59:10.781Z,5.37
2022-07-25T05:01:39.075Z,8.07
2022-07-25T05:04:09.019Z,3.73
2022-07-25T05:06:37.556Z,5.17
2022-07-25T05:09:05.812Z,3.57
2022-07-25T05:11:34.134Z,3.90
2022-07-25T05:14:03.458Z,3.63
2022-07-25T05:16:32.380Z,2.43
2022-07-25T05:19:00.691Z,3.23
2022-07-25T05:21:30.416Z,3.43
2022-07-25T05:23:58.823Z,3.93
2022-07-25T05:26:27.134Z,4.50
2022-07-25T05:28:55.409Z,4.60
2022-07-25T05:31:23.710Z,4.23
2022-07-25T05:33:52.007Z,3.70
2022-07-25T05:36:20.355Z,2.50
2022-07-25T05:38:49.988Z,3.50
2022-07-25T05:41:18.312Z,3.43
2022-07-25T05:43:47.750Z,2.60
2022-07-25T05:46:16.218Z,3.93
2022-07-25T05:48:44.639Z,3.03
2022-07-25T05:51:13.516Z,2.10
2022-07-25T05:53:41.812Z,3.83
2022-07-25T05:56:12.170Z,3.20
2022-07-25T05:58:41.013Z,2.80
2022-07-25T06:01:09.309Z,2.30
2022-07-25T06:03:37.711Z,3.57
2022-07-25T06:06:06.187Z,3.53
2022-07-25T06:08:34.447Z,2.70
2022-07-25T06:11:03.961Z,2.37
2022-07-25T06:13:34.650Z,2.60
2022-07-25T06:16:03.358Z,3.23
2022-07-25T06:18:32.146Z,2.37
2022-07-25T06:21:00.468Z,2.93
2022-07-25T06:23:28.803Z,2.30
2022-07-25T06:25:57.050Z,2.17
2022-07-25T06:28:25.322Z,1.67
2022-07-25T06:30:54.963Z,2.10
2022-07-25T06:33:23.255Z,1.40
2022-07-25T06:35:51.489Z,2.00
2022-07-25T06:38:19.806Z,2.23
2022-07-25T06:40:48.086Z,1.27
2022-07-25T06:43:16.336Z,2.83
2022-07-25T06:45:47.578Z,3.00
2022-07-25T06:48:17.376Z,1.83
2022-07-25T06:50:45.622Z,2.03
2022-07-25T06:53:13.937Z,1.70
2022-07-25T06:55:42.202Z,1.50
2022-07-25T06:58:10.454Z,2.00
2022-07-25T07:00:38.798Z,2.00
2022-07-25T07:03:07.220Z,1.70
2022-07-25T07:05:37.533Z,1.93
2022-07-25T07:08:05.981Z,2.60
2022-07-25T07:10:34.427Z,2.40
2022-07-25T07:13:07.732Z,1.53
2022-07-25T07:15:36.299Z,1.00
2022-07-25T07:18:04.730Z,1.63
2022-07-25T07:20:33.029Z,1.40
2022-07-25T07:23:02.794Z,5.00
2022-07-25T07:25:31.298Z,5.60
2022-07-25T07:27:59.582Z,1.40
2022-07-25T07:30:58.626Z,2.10
2022-07-25T07:33:16.095Z,1.07
2022-07-25T07:35:45.305Z,1.07
2022-07-25T07:38:15.052Z,1.20
2022-07-25T07:40:43.381Z,2.70
2022-07-25T07:43:11.658Z,1.07
2022-07-25T07:45:39.931Z,2.47
2022-07-25T07:48:08.560Z,0.93
2022-07-25T07:50:36.843Z,0.83
2022-07-25T07:53:05.224Z,1.97
2022-07-25T07:55:46.035Z,1.43
2022-07-25T07:58:15.621Z,1.30
2022-07-25T08:00:44.218Z,2.40
2022-07-25T08:03:12.698Z,1.60
2022-07-25T08:05:41.709Z,1.50
2022-07-25T08:08:10.932Z,2.13
2022-07-25T08:10:41.082Z,0.97
2022-07-25T08:13:14.206Z,0.63
2022-07-25T08:15:42.595Z,1.33
2022-07-25T08:18:17.793Z,0.87
2022-07-25T08:20:46.566Z,2.70
2022-07-25T08:23:14.960Z,0.70
2022-07-25T08:25:44.717Z,0.60
2022-07-25T08:28:13.063Z,1.17
2022-07-25T08:30:41.560Z,0.70
2022-07-25T08:33:10.872Z,0.83
2022-07-25T08:35:40.009Z,1.13
2022-07-25T08:38:08.263Z,0.57
2022-07-25T08:40:36.615Z,0.77
2022-07-25T08:43:06.287Z,2.33
2022-07-25T08:45:34.739Z,0.90
2022-07-25T08:48:03.062Z,2.63
2022-07-25T08:50:31.490Z,1.50
2022-07-25T08:53:34.817Z,0.90
2022-07-25T08:55:48.076Z,1.07
2022-07-25T08:58:17.965Z,1.10
2022-07-25T09:00:46.290Z,0.67
2022-07-25T09:03:14.610Z,0.93
2022-07-25T09:05:44.420Z,2.03
2022-07-25T09:08:13.446Z,1.30
2022-07-25T09:10:43.486Z,0.80
2022-07-25T09:13:14.155Z,0.73
2022-07-25T09:15:45.948Z,0.50
2022-07-25T09:18:16.835Z,0.83
2022-07-25T09:20:45.820Z,1.50
2022-07-25T09:23:14.263Z,1.20
2022-07-25T09:25:42.520Z,0.73
2022-07-25T09:28:14.921Z,1.10
2022-07-25T09:30:54.865Z,2.07
2022-07-25T09:33:23.400Z,1.00
2022-07-25T09:35:51.670Z,0.40
2022-07-25T09:38:20.062Z,0.67
2022-07-25T09:40:58.025Z,0.70
2022-07-25T09:43:26.331Z,0.50
2022-07-25T09:45:59.125Z,0.60
2022-07-25T09:48:27.478Z,1.10
2022-07-25T09:50:55.844Z,1.07
2022-07-25T09:53:24.120Z,1.67
2022-07-25T09:55:53.252Z,0.40
2022-07-25T09:58:21.555Z,0.50
2022-07-25T10:00:49.877Z,0.53
2022-07-25T10:03:20.425Z,0.87
2022-07-25T10:05:54.919Z,0.83
2022-07-25T10:08:23.215Z,1.07
2022-07-25T10:10:51.527Z,0.63
2022-07-25T10:13:30.192Z,0.57
2022-07-25T10:15:58.600Z,2.37
2022-07-25T10:18:28.874Z,0.40
2022-07-25T10:20:57.782Z,1.13
2022-07-25T10:23:26.284Z,0.40
2022-07-25T10:26:04.423Z,1.87
2022-07-25T10:28:42.838Z,0.97
2022-07-25T10:31:17.815Z,0.43
2022-07-25T10:33:48.968Z,0.73
2022-07-25T10:36:17.297Z,0.40
2022-07-25T10:38:47.499Z,0.30
2022-07-25T10:41:17.151Z,0.80
2022-07-25T10:43:48.658Z,0.70
2022-07-25T10:46:19.598Z,0.93
2022-07-25T10:48:58.538Z,0.50
2022-07-25T10:51:28.092Z,0.73
2022-07-25T10:53:56.388Z,1.03
2022-07-25T10:56:24.975Z,0.53
2022-07-25T10:58:53.589Z,0.40
2022-07-25T11:01:22.461Z,1.50
2022-07-25T11:03:52.237Z,0.40
2022-07-25T11:06:30.909Z,0.70
2022-07-25T11:09:01.093Z,2.17
2022-07-25T11:11:36.177Z,0.70
2022-07-25T11:14:04.647Z,0.63
2022-07-25T11:16:33.076Z,0.73
2022-07-25T11:19:02.789Z,1.13
2022-07-25T11:21:31.055Z,1.07
2022-07-25T11:23:59.304Z,2.37
2022-07-25T11:26:27.579Z,0.83
2022-07-25T11:28:55.887Z,1.20
2022-07-25T11:31:24.595Z,2.03
2022-07-25T11:33:53.001Z,1.47
2022-07-25T11:36:22.634Z,1.07
2022-07-25T11:38:50.889Z,1.60
2022-07-25T11:41:29.512Z,1.23
2022-07-25T11:43:57.807Z,1.07
2022-07-25T11:46:26.186Z,2.60
2022-07-25T11:48:54.703Z,2.30
2022-07-25T11:51:24.408Z,2.13
2022-07-25T11:53:52.829Z,1.37
2022-07-25T11:59:10.682Z,2.03
2022-07-25T12:01:39.712Z,2.33
2022-07-25T12:04:11.936Z,3.37
2022-07-25T12:06:41.624Z,2.70
2022-07-25T12:09:18.281Z,1.30
2022-07-25T12:11:47.102Z,3.20
2022-07-25T12:14:15.415Z,1.43
2022-07-25T12:16:43.722Z,1.97
2022-07-25T12:19:19.905Z,1.93
2022-07-25T12:21:49.562Z,3.40
2022-07-25T12:24:17.883Z,3.90
2022-07-25T12:26:46.217Z,0.90
2022-07-25T12:29:14.506Z,2.00
2022-07-25T12:31:42.835Z,2.23
2022-07-25T12:34:11.117Z,1.47
2022-07-25T12:36:44.014Z,1.53
2022-07-25T12:39:13.972Z,1.03
2022-07-25T12:41:42.849Z,2.93
2022-07-25T12:44:11.793Z,2.83
2022-07-25T12:46:45.826Z,2.13
2022-07-25T12:49:17.987Z,2.10
2022-07-25T12:51:46.451Z,1.80
2022-07-25T12:54:22.081Z,2.43
2022-07-25T12:56:50.788Z,1.23
2022-07-25T12:59:19.101Z,1.00
2022-07-25T13:01:47.534Z,0.73
2022-07-25T13:04:15.902Z,0.90
2022-07-25T13:06:44.221Z,3.47
2022-07-25T13:09:12.485Z,1.10
2022-07-25T13:11:42.393Z,1.90
2022-07-25T13:14:10.835Z,3.40
2022-07-25T13:16:39.317Z,1.70
2022-07-25T13:19:08.139Z,1.23
2022-07-25T13:21:37.545Z,0.67
2022-07-25T13:24:07.090Z,1.73
2022-07-25T13:26:35.561Z,0.60
2022-07-25T13:29:08.437Z,1.87
2022-07-25T13:31:38.147Z,0.90
2022-07-25T13:34:06.600Z,2.03
2022-07-25T13:36:34.946Z,1.17
2022-07-25T13:39:03.382Z,2.43
2022-07-25T13:41:31.790Z,0.67
2022-07-25T13:44:00.372Z,1.10
2022-07-25T13:46:30.054Z,1.90
2022-07-25T13:48:58.380Z,1.57
2022-07-25T13:51:26.724Z,3.63
2022-07-25T13:53:55.018Z,2.50
2022-07-25T13:56:23.272Z,3.03
2022-07-25T13:58:51.560Z,2.60
2022-07-25T14:01:19.951Z,2.00
2022-07-25T14:03:49.743Z,2.00
2022-07-25T14:06:18.010Z,3.60
2022-07-25T14:08:46.268Z,2.87
2022-07-25T14:11:14.613Z,2.30
2022-07-25T14:13:43.665Z,3.87
2022-07-25T14:16:14.158Z,2.23
2022-07-25T14:18:42.395Z,1.63
2022-07-25T14:21:12.434Z,3.07
2022-07-25T14:23:40.735Z,1.53
2022-07-25T14:26:09.046Z,4.90
2022-07-25T14:28:37.483Z,2.47
2022-07-25T14:31:05.799Z,2.27
2022-07-25T14:33:37.864Z,3.90
2022-07-25T14:36:06.363Z,5.93
2022-07-25T14:38:36.000Z,2.63
2022-07-25T14:41:07.838Z,1.57
2022-07-25T14:43:40.593Z,2.60
2022-07-25T14:46:09.153Z,1.27
2022-07-25T14:48:37.920Z,2.83
2022-07-25T14:51:06.433Z,2.87
2022-07-25T14:53:36.186Z,3.63
2022-07-25T14:56:05.017Z,3.40
2022-07-25T14:58:33.614Z,6.17
2022-07-25T15:01:01.985Z,1.97
2022-07-25T15:03:30.380Z,1.97
2022-07-25T15:05:58.739Z,2.10
2022-07-25T15:08:27.043Z,1.50
2022-07-25T15:10:56.875Z,1.90
2022-07-25T15:13:32.836Z,2.33
2022-07-25T15:16:01.435Z,3.60
2022-07-25T15:18:29.827Z,1.50
2022-07-25T15:20:58.115Z,2.73
2022-07-25T15:23:29.747Z,1.37
2022-07-25T15:26:02.746Z,1.17
2022-07-25T15:28:31.708Z,1.93
2022-07-25T15:31:00.052Z,0.80
2022-07-25T15:33:28.429Z,5.63
2022-07-25T15:35:56.842Z,0.90
2022-07-25T15:38:25.168Z,3.80
2022-07-25T15:40:53.468Z,1.97
2022-07-25T15:43:23.104Z,1.47
2022-07-25T15:45:51.411Z,1.70
2022-07-25T15:48:19.712Z,1.80
2022-07-25T15:50:48.652Z,1.90
2022-07-25T15:53:17.088Z,1.20
2022-07-25T15:55:45.365Z,4.33
2022-07-25T15:58:13.695Z,1.80
2022-07-25T16:00:43.453Z,1.47
2022-07-25T16:03:11.991Z,3.30
2022-07-25T16:05:40.335Z,6.13
2022-07-25T16:08:09.983Z,3.53
2022-07-25T16:10:38.493Z,3.00
2022-07-25T16:13:07.097Z,2.60
2022-07-25T16:15:35.662Z,4.00
2022-07-25T16:18:05.381Z,2.03
2022-07-25T16:20:33.937Z,2.93
2022-07-25T16:23:02.496Z,1.90
2022-07-25T16:25:30.761Z,5.10
2022-07-25T16:27:59.019Z,2.50
2022-07-25T16:30:27.794Z,2.87
2022-07-25T16:32:56.058Z,3.73
2022-07-25T16:35:25.757Z,3.80
2022-07-25T16:37:54.159Z,5.77
2022-07-25T16:40:27.361Z,4.73
2022-07-25T16:42:59.664Z,4.80
2022-07-25T16:45:28.162Z,7.50
2022-07-25T16:47:56.480Z,7.67
2022-07-25T16:50:26.163Z,4.33
2022-07-25T16:52:54.866Z,3.70
2022-07-25T16:55:23.147Z,3.33
2022-07-25T16:57:51.425Z,2.90
2022-07-25T17:00:20.836Z,4.57
2022-07-25T17:02:49.707Z,2.70
2022-07-25T17:05:18.167Z,5.77
2022-07-25T17:07:57.048Z,5.07
2022-07-25T17:10:27.559Z,3.97
2022-07-25T17:12:55.889Z,8.03
2022-07-25T17:15:24.142Z,4.33
2022-07-25T17:17:52.475Z,6.87
2022-07-25T17:20:20.729Z,5.33
2022-07-25T17:22:50.348Z,4.57
2022-07-25T17:25:18.854Z,5.23
2022-07-25T17:27:47.096Z,5.10
2022-07-25T17:30:15.462Z,5.03
2022-07-25T17:32:43.846Z,10.23
2022-07-25T17:35:12.137Z,4.30
2022-07-25T17:37:40.446Z,6.93
2022-07-25T17:40:11.456Z,6.93
2022-07-25T17:42:44.960Z,4.27
2022-07-25T17:45:13.783Z,3.97
2022-07-25T17:47:42.075Z,4.80
2022-07-25T17:50:10.774Z,3.87
2022-07-25T17:52:39.121Z,7.93
2022-07-25T17:55:07.742Z,3.87
2022-07-25T17:57:37.346Z,6.33
2022-07-25T18:00:06.209Z,5.60
2022-07-25T18:02:34.519Z,4.70
2022-07-25T18:05:03.666Z,3.70
2022-07-25T18:07:32.195Z,8.53
2022-07-25T18:10:01.956Z,4.87
2022-07-25T18:12:30.251Z,5.33
2022-07-25T18:15:00.012Z,4.47
2022-07-25T18:17:28.286Z,4.30
2022-07-25T18:19:56.568Z,3.53
2022-07-25T18:22:24.876Z,5.10
2022-07-25T18:24:53.175Z,3.60
2022-07-25T18:27:21.449Z,5.43
2022-07-25T18:29:49.772Z,3.10
2022-07-25T18:32:19.412Z,7.10
2022-07-25T18:34:47.693Z,4.27
2022-07-25T18:37:16.041Z,5.23
2022-07-25T18:39:44.522Z,4.83
2022-07-25T18:42:12.805Z,3.90
2022-07-25T18:44:41.090Z,2.13
2022-07-25T18:47:09.608Z,2.30
2022-07-25T18:49:39.234Z,3.67
2022-07-25T18:52:07.739Z,2.43
2022-07-25T18:54:36.130Z,2.77
2022-07-25T18:57:06.351Z,3.70
2022-07-25T18:59:34.635Z,3.60
2022-07-25T19:02:03.136Z,2.73
2022-07-25T19:04:31.508Z,4.10
2022-07-25T19:07:01.414Z,2.33
2022-07-25T19:09:29.694Z,3.57
2022-07-25T19:11:58.005Z,3.57
2022-07-25T19:14:27.397Z,4.73
2022-07-25T19:16:57.542Z,2.57
2022-07-25T19:19:25.899Z,7.77
2022-07-25T19:21:54.233Z,5.53
2022-07-25T19:24:23.927Z,3.47
2022-07-25T19:26:52.485Z,2.07
2022-07-25T19:29:20.987Z,2.90
2022-07-25T19:31:49.273Z,1.73
2022-07-25T19:34:17.552Z,2.43
2022-07-25T19:36:46.349Z,2.80
2022-07-25T19:39:14.647Z,2.07
2022-07-25T19:41:46.843Z,4.00
2022-07-25T19:44:15.528Z,1.73
2022-07-25T19:46:44.846Z,1.90
2022-07-25T19:49:13.371Z,4.90
2022-07-25T19:51:41.687Z,3.63
2022-07-25T19:54:10.485Z,3.10
2022-07-25T19:56:39.176Z,3.10
2022-07-25T19:59:08.880Z,3.80
2022-07-25T20:01:39.282Z,2.60
2022-07-25T20:04:09.236Z,4.37
2022-07-25T20:06:37.841Z,4.47
2022-07-25T20:09:06.395Z,3.67
2022-07-25T20:11:34.938Z,2.53
2022-07-25T20:14:03.205Z,1.90
2022-07-25T20:16:32.843Z,2.30
2022-07-25T20:19:01.355Z,2.37
2022-07-25T20:21:29.646Z,2.20
2022-07-25T20:23:57.898Z,2.60
2022-07-25T20:26:26.243Z,2.73
2022-07-25T20:28:55.160Z,2.70
2022-07-25T20:31:24.391Z,1.53
2022-07-25T20:33:54.150Z,1.30
2022-07-25T20:36:22.499Z,1.40
2022-07-25T20:38:50.774Z,3.67
2022-07-25T20:41:19.065Z,2.20
2022-07-25T20:43:47.374Z,2.20
2022-07-25T20:46:15.663Z,3.07
2022-07-25T20:48:44.054Z,3.27
2022-07-25T20:51:14.032Z,4.17
2022-07-25T20:53:42.792Z,3.57
2022-07-25T20:56:11.059Z,3.13
2022-07-25T20:58:39.320Z,5.47
2022-07-25T21:01:07.656Z,4.60
2022-07-25T21:03:36.460Z,6.10
2022-07-25T21:06:04.747Z,3.90
2022-07-25T21:08:34.373Z,3.57
2022-07-25T21:11:02.641Z,4.53
2022-07-25T21:13:33.077Z,4.73
2022-07-25T21:16:01.507Z,3.93
2022-07-25T21:18:29.806Z,5.37
2022-07-25T21:20:58.523Z,2.97
2022-07-25T21:23:27.375Z,3.93
2022-07-25T21:25:57.011Z,2.97
2022-07-25T21:28:25.979Z,4.40
2022-07-25T21:30:54.371Z,5.23
2022-07-25T21:33:22.631Z,5.67
2022-07-25T21:35:53.716Z,2.13
2022-07-25T21:38:26.057Z,7.43
2022-07-25T21:40:57.948Z,4.23
2022-07-25T21:43:26.271Z,2.03
2022-07-25T21:45:54.578Z,2.67
2022-07-25T21:48:43.873Z,1.83
2022-07-25T21:51:19.355Z,2.80
2022-07-25T21:53:51.509Z,1.57
2022-07-25T21:56:21.142Z,2.57
2022-07-25T21:58:49.739Z,3.20
2022-07-25T22:01:18.089Z,2.47
2022-07-25T22:03:46.413Z,3.73
2022-07-25T22:06:14.721Z,4.70
2022-07-25T22:08:43.070Z,1.47
2022-07-25T22:11:38.107Z,4.53
2022-07-25T22:14:00.975Z,1.77
2022-07-25T22:16:29.333Z,5.97
2022-07-25T22:18:58.158Z,2.63
2022-07-25T22:21:26.445Z,2.43
2022-07-25T22:23:54.688Z,2.10
2022-07-25T22:26:22.935Z,2.53
2022-07-25T22:28:51.654Z,4.07
2022-07-25T22:31:21.284Z,1.80
2022-07-25T22:33:49.605Z,2.30
2022-07-25T22:36:17.885Z,2.73
2022-07-25T22:38:46.141Z,2.10
2022-07-25T22:41:14.436Z,2.13
2022-07-25T22:43:58.764Z,1.53
2022-07-25T22:46:29.268Z,2.03
2022-07-25T22:48:57.753Z,1.27
2022-07-25T22:51:26.387Z,2.07
2022-07-25T22:53:54.674Z,2.93
2022-07-25T22:56:22.951Z,3.83
2022-07-25T22:58:51.308Z,0.93
2022-07-25T23:01:19.653Z,2.90
2022-07-25T23:03:50.377Z,1.20
2022-07-25T23:06:18.764Z,0.83
2022-07-25T23:08:47.063Z,1.20
2022-07-25T23:11:15.402Z,1.50
2022-07-25T23:13:43.657Z,2.33
2022-07-25T23:16:11.950Z,2.60
2022-07-25T23:18:40.418Z,1.93
2022-07-25T23:21:10.110Z,2.53
2022-07-25T23:23:38.353Z,2.33
2022-07-25T23:26:06.633Z,3.60
2022-07-25T23:28:34.921Z,2.37
2022-07-25T23:31:03.160Z,1.40
2022-07-25T23:33:31.507Z,1.13
2022-07-25T23:35:59.782Z,2.50
2022-07-25T23:38:29.402Z,0.80
2022-07-25T23:40:57.655Z,0.93
2022-07-25T23:43:36.507Z,1.90
2022-07-25T23:46:14.385Z,3.43
2022-07-25T23:48:43.493Z,2.37
2022-07-25T23:51:11.783Z,1.97
2022-07-25T23:53:41.397Z,1.37
2022-07-25T23:56:09.849Z,2.10
2022-07-25T23:58:38.093Z,1.13
